Time;durP1;ratioP1;P1;durP2;ratioP2;P2;SDS_P1;SDS_P2;PMS_P1;PMS_P2;Temp;Humidity;BMP_temperature;BMP_pressure;BME280_temperature;BME280_humidity;BME280_pressure;Samples;Min_cycle;Max_cycle;Signal;HPM_P1;HPM_P2
2022/10/09 00:01:03;;;;;;;5.77;3.70;;;11.80;99.90;;;;;;5074834;28;20447;-70
2022/10/09 00:03:29;;;;;;;5.40;3.37;;;11.80;99.90;;;;;;5094713;28;20164;-71
2022/10/09 00:05:54;;;;;;;5.03;3.27;;;11.80;99.90;;;;;;5094789;28;20403;-70
2022/10/09 00:08:20;;;;;;;4.10;3.10;;;11.70;99.90;;;;;;5094719;28;20542;-69
2022/10/09 00:10:45;;;;;;;3.73;3.03;;;11.70;99.90;;;;;;5094738;28;20295;-70
2022/10/09 00:13:11;;;;;;;4.60;3.40;;;11.70;99.90;;;;;;5092874;28;20209;-69
2022/10/09 00:15:42;;;;;;;6.97;3.23;;;11.70;99.90;;;;;;5094525;28;20273;-70
2022/10/09 00:18:09;;;;;;;6.47;3.40;;;11.70;99.90;;;;;;5093311;28;20261;-69
2022/10/09 00:20:36;;;;;;;6.90;3.83;;;11.70;99.90;;;;;;5076744;28;20421;-69
2022/10/09 00:23:02;;;;;;;9.10;3.23;;;11.70;99.90;;;;;;5076105;28;20786;-69
2022/10/09 00:25:28;;;;;;;4.83;3.60;;;11.70;99.90;;;;;;5094510;28;20428;-70
2022/10/09 00:27:56;;;;;;;6.13;3.10;;;11.60;99.90;;;;;;5073141;28;20182;-70
2022/10/09 00:30:21;;;;;;;4.97;3.23;;;11.60;99.90;;;;;;5073903;28;20202;-70
2022/10/09 00:32:47;;;;;;;7.63;4.43;;;11.60;99.90;;;;;;5073875;28;20489;-70
2022/10/09 00:35:13;;;;;;;4.73;3.30;;;11.50;99.90;;;;;;5073675;28;20210;-70
2022/10/09 00:37:38;;;;;;;7.83;4.50;;;11.50;99.90;;;;;;5073444;28;20200;-70
2022/10/09 00:40:04;;;;;;;4.63;4.23;;;11.50;99.90;;;;;;5085873;28;20177;-70
2022/10/09 00:42:30;;;;;;;5.07;3.53;;;11.50;99.90;;;;;;5094235;28;20177;-70
2022/10/09 00:44:59;;;;;;;8.17;3.27;;;11.40;99.90;;;;;;5094413;28;20909;-70
2022/10/09 00:47:45;;;;;;;6.63;3.90;;;11.40;99.90;;;;;;5075995;28;20252;-70
2022/10/09 00:50:18;;;;;;;6.07;3.83;;;11.30;99.90;;;;;;5094265;28;20802;-70
2022/10/09 00:52:45;;;;;;;8.00;3.97;;;11.20;99.90;;;;;;5092657;28;20484;-70
2022/10/09 00:55:12;;;;;;;5.10;3.77;;;11.30;99.90;;;;;;5076731;28;20461;-70
2022/10/09 00:57:39;;;;;;;5.20;3.90;;;11.20;99.90;;;;;;5094545;28;20402;-69
2022/10/09 01:00:07;;;;;;;5.83;3.63;;;11.20;99.90;;;;;;5094086;28;20410;-71
2022/10/09 01:02:33;;;;;;;5.43;4.60;;;11.30;99.90;;;;;;5091833;28;20429;-70
2022/10/09 01:04:59;;;;;;;5.83;4.50;;;11.20;99.90;;;;;;5093693;28;20827;-71
2022/10/09 01:07:46;;;;;;;9.80;4.50;;;11.20;99.90;;;;;;5075520;28;20249;-69
2022/10/09 01:10:36;;;;;;;4.77;3.50;;;11.20;99.90;;;;;;5093770;28;20645;-69
2022/10/09 01:13:12;;;;;;;7.50;4.80;;;11.20;99.90;;;;;;5073787;28;20467;-69
2022/10/09 01:15:48;;;;;;;6.03;4.13;;;11.20;99.90;;;;;;5093411;28;20422;-70
2022/10/09 01:18:20;;;;;;;6.47;4.10;;;11.10;99.90;;;;;;5074784;28;20416;-70
2022/10/09 01:20:53;;;;;;;8.03;4.57;;;11.10;99.90;;;;;;5092027;28;20420;-70
2022/10/09 01:23:51;;;;;;;7.67;3.80;;;11.10;99.90;;;;;;5093886;28;20380;-70
2022/10/09 01:26:54;;;;;;;5.80;4.27;;;11.00;99.90;;;;;;5093373;28;20463;-70
2022/10/09 01:29:21;;;;;;;4.13;3.73;;;11.00;99.90;;;;;;5091886;28;20415;-70
2022/10/09 01:31:49;;;;;;;5.93;3.50;;;10.90;99.90;;;;;;5093529;28;20446;-70
2022/10/09 01:34:18;;;;;;;5.80;3.80;;;11.00;99.90;;;;;;5094083;28;20440;-70
2022/10/09 01:36:45;;;;;;;5.20;3.80;;;11.00;99.90;;;;;;5093401;28;20396;-70
2022/10/09 01:39:18;;;;;;;6.53;3.90;;;11.00;99.90;;;;;;5093909;28;20400;-70
2022/10/09 01:41:46;;;;;;;9.00;4.30;;;10.90;99.90;;;;;;5093339;28;20414;-71
2022/10/09 01:44:21;;;;;;;3.60;2.90;;;10.90;99.90;;;;;;5092985;28;20415;-72
2022/10/09 01:46:47;;;;;;;4.37;3.67;;;11.00;99.90;;;;;;5092867;28;20417;-70
2022/10/09 01:49:35;;;;;;;3.73;3.10;;;10.90;99.90;;;;;;5093091;28;20922;-70
2022/10/09 01:52:23;;;;;;;4.10;2.90;;;10.90;99.90;;;;;;5093104;28;20451;-70
2022/10/09 01:55:01;;;;;;;4.47;3.17;;;10.90;99.90;;;;;;5092935;28;20935;-70
2022/10/09 01:57:43;;;;;;;4.43;3.30;;;10.80;99.90;;;;;;5092503;28;20923;-70
2022/10/09 02:00:11;;;;;;;5.67;4.00;;;10.80;99.90;;;;;;5093326;28;20387;-70
2022/10/09 02:02:38;;;;;;;7.77;3.83;;;10.70;99.90;;;;;;5091500;28;20442;-71
2022/10/09 02:05:04;;;;;;;6.03;3.47;;;10.70;99.90;;;;;;5092950;28;20430;-71
2022/10/09 02:07:31;;;;;;;3.50;2.90;;;10.70;99.90;;;;;;5075191;28;20478;-70
2022/10/09 02:10:00;;;;;;;6.73;3.83;;;10.70;99.90;;;;;;5093175;28;20405;-71
2022/10/09 02:12:28;;;;;;;5.70;4.20;;;10.70;99.90;;;;;;5092849;28;20929;-70
2022/10/09 02:14:54;;;;;;;4.13;3.70;;;10.60;99.90;;;;;;5093420;28;20484;-70
2022/10/09 02:17:25;;;;;;;4.03;3.40;;;10.60;99.90;;;;;;5094085;28;20409;-70
2022/10/09 02:19:57;;;;;;;8.30;3.87;;;10.60;99.90;;;;;;5094785;28;20147;-71
2022/10/09 02:22:29;;;;;;;10.57;4.20;;;10.60;99.90;;;;;;5094195;28;20464;-70
2022/10/09 02:24:58;;;;;;;3.47;3.17;;;10.60;99.90;;;;;;5082962;28;20808;-70
2022/10/09 02:27:23;;;;;;;4.40;3.10;;;10.60;99.90;;;;;;5076936;28;20957;-70
2022/10/09 02:29:51;;;;;;;4.83;4.23;;;10.60;99.90;;;;;;5091172;28;20423;-70
2022/10/09 02:32:16;;;;;;;4.53;3.57;;;10.60;99.90;;;;;;5093022;28;20442;-71
2022/10/09 02:34:42;;;;;;;5.90;3.50;;;10.60;99.90;;;;;;5093370;28;20885;-70
2022/10/09 02:37:07;;;;;;;8.97;4.83;;;10.60;99.90;;;;;;5093250;28;20166;-70
2022/10/09 02:39:33;;;;;;;7.83;4.63;;;10.60;99.90;;;;;;5091575;28;20255;-70
2022/10/09 02:41:59;;;;;;;5.20;4.60;;;10.60;99.90;;;;;;5093241;28;20172;-70
2022/10/09 02:44:25;;;;;;;8.30;6.83;;;10.50;99.90;;;;;;5092709;28;20841;-70
2022/10/09 02:46:50;;;;;;;8.13;6.20;;;10.50;99.90;;;;;;5092288;28;20251;-70
2022/10/09 02:49:16;;;;;;;7.67;5.70;;;10.50;99.90;;;;;;5092326;28;20176;-70
2022/10/09 02:51:41;;;;;;;5.10;4.60;;;10.40;99.90;;;;;;5092492;28;20190;-70
2022/10/09 02:54:08;;;;;;;13.63;7.57;;;10.40;99.90;;;;;;5073912;28;20245;-70
2022/10/09 02:56:34;;;;;;;11.97;8.20;;;10.30;99.90;;;;;;5092611;28;20208;-70
2022/10/09 02:59:00;;;;;;;8.97;5.67;;;10.30;99.90;;;;;;5090891;28;20442;-70
2022/10/09 03:01:25;;;;;;;7.83;5.00;;;10.30;99.90;;;;;;5091881;28;20418;-70
2022/10/09 03:03:51;;;;;;;5.60;4.90;;;10.30;99.90;;;;;;5073884;28;20191;-70
2022/10/09 03:06:23;;;;;;;8.80;6.50;;;10.30;99.90;;;;;;5092664;28;20245;-70
2022/10/09 03:08:50;;;;;;;6.07;5.27;;;10.30;99.90;;;;;;5092198;28;20158;-70
2022/10/09 03:11:17;;;;;;;10.00;5.90;;;10.30;99.90;;;;;;5092353;28;20438;-70
2022/10/09 03:13:42;;;;;;;6.27;5.20;;;10.30;99.90;;;;;;5073552;28;20475;-70
2022/10/09 03:16:17;;;;;;;6.60;5.37;;;10.20;99.90;;;;;;5093746;28;20398;-70
2022/10/09 03:18:43;;;;;;;6.20;5.20;;;10.20;99.90;;;;;;5096135;28;20152;-70
2022/10/09 03:21:11;;;;;;;6.43;4.40;;;10.20;99.90;;;;;;5095800;28;20408;-70
2022/10/09 03:23:37;;;;;;;4.00;3.60;;;10.20;99.90;;;;;;5095888;28;20437;-70
2022/10/09 03:26:08;;;;;;;9.20;4.57;;;10.20;99.90;;;;;;5095768;28;20400;-70
2022/10/09 03:28:35;;;;;;;5.80;4.53;;;10.20;99.90;;;;;;5095359;28;20485;-70
2022/10/09 03:31:01;;;;;;;6.07;4.20;;;10.10;99.90;;;;;;5095689;28;20401;-70
2022/10/09 03:33:27;;;;;;;5.90;3.83;;;10.10;99.90;;;;;;5095449;28;20455;-70
2022/10/09 03:35:52;;;;;;;5.30;4.20;;;10.10;99.90;;;;;;5095322;28;20231;-70
2022/10/09 03:38:18;;;;;;;6.03;3.90;;;10.00;99.90;;;;;;5095302;28;20214;-70
2022/10/09 03:40:43;;;;;;;5.50;4.37;;;10.00;99.90;;;;;;5095289;28;20282;-71
2022/10/09 03:43:09;;;;;;;5.30;3.70;;;10.00;99.90;;;;;;5094052;28;20174;-70
2022/10/09 03:45:37;;;;;;;5.80;4.40;;;10.10;99.90;;;;;;5095092;28;20192;-70
2022/10/09 03:48:03;;;;;;;5.57;3.80;;;10.00;99.90;;;;;;5076613;28;20169;-69
2022/10/09 03:50:28;;;;;;;4.73;4.00;;;10.00;99.90;;;;;;5094956;28;20455;-69
2022/10/09 03:52:54;;;;;;;4.53;3.20;;;10.00;99.90;;;;;;5095057;28;20192;-70
2022/10/09 03:55:20;;;;;;;5.33;3.20;;;10.00;99.90;;;;;;5095003;28;20217;-71
2022/10/09 03:57:45;;;;;;;3.57;2.90;;;10.00;99.90;;;;;;5094842;28;20205;-70
2022/10/09 04:00:11;;;;;;;4.50;3.50;;;10.00;99.90;;;;;;5095327;28;20240;-70
2022/10/09 04:02:37;;;;;;;5.70;3.90;;;10.00;99.90;;;;;;5092693;28;20266;-70
2022/10/09 04:05:03;;;;;;;5.60;3.67;;;10.00;99.90;;;;;;5094710;28;20451;-69
2022/10/09 04:07:28;;;;;;;6.00;3.20;;;9.90;99.90;;;;;;5094682;28;20168;-70
2022/10/09 04:09:54;;;;;;;5.73;4.13;;;9.90;99.90;;;;;;5094791;28;20171;-70
2022/10/09 04:12:20;;;;;;;5.50;4.00;;;9.90;99.90;;;;;;5094673;28;20569;-70
2022/10/09 04:14:45;;;;;;;6.40;3.40;;;9.90;99.90;;;;;;5094582;28;20425;-69
2022/10/09 04:17:11;;;;;;;3.80;3.50;;;10.00;99.90;;;;;;5092780;28;20197;-70
2022/10/09 04:19:36;;;;;;;4.40;3.67;;;9.90;99.90;;;;;;5094292;28;20165;-69
2022/10/09 04:22:02;;;;;;;6.17;4.03;;;9.90;99.90;;;;;;5094296;28;20194;-69
2022/10/09 04:24:28;;;;;;;4.23;3.70;;;9.90;99.90;;;;;;5094454;28;20243;-69
2022/10/09 04:26:53;;;;;;;6.30;3.30;;;9.90;99.90;;;;;;5095064;28;20623;-69
2022/10/09 04:29:19;;;;;;;5.27;3.90;;;9.80;99.90;;;;;;5076052;28;20545;-70
2022/10/09 04:31:44;;;;;;;5.80;3.67;;;9.80;99.90;;;;;;5094279;28;20190;-70
2022/10/09 04:34:10;;;;;;;5.00;3.60;;;9.80;99.90;;;;;;5077563;28;20198;-70
2022/10/09 04:36:36;;;;;;;4.93;4.20;;;9.70;99.90;;;;;;5073729;28;20168;-70
2022/10/09 04:39:01;;;;;;;6.17;3.60;;;9.70;99.90;;;;;;5073861;28;20212;-69
2022/10/09 04:41:27;;;;;;;6.00;3.87;;;9.60;99.90;;;;;;5073736;28;20173;-70
2022/10/09 04:43:56;;;;;;;5.30;4.20;;;9.60;99.90;;;;;;5074088;28;20190;-70
2022/10/09 04:46:22;;;;;;;5.27;3.10;;;9.70;99.90;;;;;;5057670;28;20193;-70
2022/10/09 04:48:48;;;;;;;4.20;3.30;;;9.70;99.90;;;;;;5064279;28;20411;-69
2022/10/09 04:51:15;;;;;;;5.30;3.73;;;9.60;99.90;;;;;;5064305;28;20477;-70
2022/10/09 04:53:41;;;;;;;6.83;4.30;;;9.60;99.90;;;;;;5064049;28;20416;-69
2022/10/09 04:56:14;;;;;;;7.63;3.70;;;9.60;99.90;;;;;;5064452;28;20411;-70
2022/10/09 04:58:40;;;;;;;5.00;4.30;;;9.60;99.90;;;;;;5064674;28;20176;-70
2022/10/09 05:01:15;;;;;;;7.27;4.17;;;9.60;99.90;;;;;;5064423;28;20464;-71
2022/10/09 05:03:40;;;;;;;5.37;3.97;;;9.60;99.90;;;;;;5063838;28;20824;-70
2022/10/09 05:06:09;;;;;;;8.43;4.90;;;9.50;99.90;;;;;;5064046;28;20440;-69
2022/10/09 05:08:34;;;;;;;6.23;4.60;;;9.50;99.90;;;;;;5064655;28;20185;-70
2022/10/09 05:11:06;;;;;;;6.90;5.37;;;9.50;99.90;;;;;;5046499;28;20411;-70
2022/10/09 05:13:35;;;;;;;7.10;5.77;;;9.50;99.90;;;;;;5064114;28;20531;-69
2022/10/09 05:16:06;;;;;;;8.17;6.00;;;9.50;99.90;;;;;;5064210;28;20418;-70
2022/10/09 05:18:32;;;;;;;8.40;6.67;;;9.40;99.90;;;;;;5064027;28;20779;-69
2022/10/09 05:20:58;;;;;;;9.60;7.90;;;9.40;99.90;;;;;;5065287;28;20414;-70
2022/10/09 05:23:24;;;;;;;12.70;7.33;;;9.50;99.90;;;;;;5065243;28;20186;-70
2022/10/09 05:25:56;;;;;;;7.17;5.33;;;9.40;99.90;;;;;;5064830;28;20191;-70
2022/10/09 05:28:22;;;;;;;8.83;6.80;;;9.30;99.90;;;;;;5064995;28;20415;-70
2022/10/09 05:30:48;;;;;;;7.27;6.47;;;9.30;99.90;;;;;;5064103;28;20415;-71
2022/10/09 05:33:13;;;;;;;6.67;4.40;;;9.20;99.90;;;;;;5063554;28;20236;-70
2022/10/09 05:35:39;;;;;;;7.50;4.70;;;9.20;99.90;;;;;;5062593;28;20277;-69
2022/10/09 05:38:04;;;;;;;8.10;4.37;;;9.30;99.90;;;;;;5063409;28;20179;-70
2022/10/09 05:40:30;;;;;;;5.37;4.17;;;9.30;99.90;;;;;;5063552;28;20180;-70
2022/10/09 05:42:55;;;;;;;4.57;4.07;;;9.30;99.90;;;;;;5063458;28;20185;-70
2022/10/09 05:45:21;;;;;;;4.60;3.90;;;9.30;99.90;;;;;;5063017;28;20197;-70
2022/10/09 05:47:47;;;;;;;7.77;4.67;;;9.30;99.90;;;;;;5062925;28;20193;-70
2022/10/09 05:50:13;;;;;;;5.50;4.80;;;9.20;99.90;;;;;;5045115;28;20436;-70
2022/10/09 05:52:38;;;;;;;10.47;5.87;;;9.20;99.90;;;;;;5044856;28;20205;-69
2022/10/09 05:55:05;;;;;;;6.60;5.23;;;9.30;99.90;;;;;;5114424;22;20224;-72
2022/10/09 05:57:31;;;;;;;9.97;5.73;;;9.30;99.90;;;;;;5093642;28;20172;-72
2022/10/09 05:59:57;;;;;;;11.63;6.23;;;9.30;99.90;;;;;;5093383;28;20812;-73
2022/10/09 06:02:22;;;;;;;7.07;4.87;;;9.30;99.90;;;;;;5099898;28;20206;-73
2022/10/09 06:04:48;;;;;;;5.13;4.63;;;9.20;99.90;;;;;;5111036;28;20556;-74
2022/10/09 06:07:13;;;;;;;6.10;5.40;;;9.30;99.90;;;;;;5113698;28;20184;-73
2022/10/09 06:09:39;;;;;;;6.23;5.00;;;9.30;99.90;;;;;;5113965;28;20191;-73
2022/10/09 06:12:05;;;;;;;6.37;4.97;;;9.30;99.90;;;;;;5113735;28;20230;-74
2022/10/09 06:14:30;;;;;;;5.50;4.70;;;9.40;99.90;;;;;;5095460;28;20189;-74
2022/10/09 06:16:58;;;;;;;8.37;5.57;;;9.40;99.90;;;;;;5095825;28;20172;-74
2022/10/09 06:19:24;;;;;;;6.57;5.10;;;9.40;99.90;;;;;;5113144;28;20168;-74
2022/10/09 06:21:50;;;;;;;5.40;4.90;;;9.40;99.90;;;;;;5114287;28;20425;-73
2022/10/09 06:24:19;;;;;;;8.57;6.00;;;9.50;99.90;;;;;;5113310;28;20199;-73
2022/10/09 06:26:45;;;;;;;10.10;6.87;;;9.50;99.90;;;;;;5111125;28;20404;-73
2022/10/09 06:29:11;;;;;;;8.23;7.30;;;9.50;99.90;;;;;;5092761;28;20411;-72
2022/10/09 06:31:37;;;;;;;8.70;6.43;;;9.50;99.90;;;;;;5093184;28;20221;-74
2022/10/09 06:34:03;;;;;;;7.70;6.87;;;9.50;99.90;;;;;;5097795;28;20543;-74
2022/10/09 06:36:32;;;;;;;6.70;5.90;;;9.60;99.90;;;;;;5113360;28;20401;-72
2022/10/09 06:39:03;;;;;;;7.10;6.40;;;9.70;99.90;;;;;;5113200;28;20840;-73
2022/10/09 06:41:28;;;;;;;7.33;5.73;;;9.80;99.90;;;;;;5113447;28;20821;-72
2022/10/09 06:44:00;;;;;;;7.23;6.53;;;9.70;99.90;;;;;;5113591;28;20420;-73
2022/10/09 06:46:28;;;;;;;6.57;5.80;;;9.80;99.90;;;;;;5113419;28;20156;-73
2022/10/09 06:48:54;;;;;;;8.10;7.30;;;9.90;99.90;;;;;;5094628;28;20417;-72
2022/10/09 06:51:21;;;;;;;8.13;6.20;;;9.90;99.90;;;;;;5115761;28;20409;-72
2022/10/09 06:53:50;;;;;;;7.40;6.30;;;9.90;99.90;;;;;;5117015;28;20200;-72
2022/10/09 06:56:17;;;;;;;9.40;6.20;;;10.00;99.90;;;;;;5116930;28;20398;-73
2022/10/09 06:58:43;;;;;;;7.90;7.07;;;10.00;99.90;;;;;;5116817;28;20809;-73
2022/10/09 07:01:11;;;;;;;8.13;6.27;;;10.10;99.90;;;;;;5116893;28;20398;-73
2022/10/09 07:03:39;;;;;;;7.83;6.97;;;10.10;99.90;;;;;;5115472;28;21001;-73
2022/10/09 07:06:07;;;;;;;6.57;5.93;;;10.10;99.90;;;;;;5116661;28;20444;-73
2022/10/09 07:08:33;;;;;;;6.50;5.90;;;10.20;99.90;;;;;;5116781;28;20542;-73
2022/10/09 07:10:58;;;;;;;11.40;7.47;;;10.30;99.90;;;;;;5116802;28;20482;-73
2022/10/09 07:13:24;;;;;;;9.23;6.53;;;10.20;99.90;;;;;;5114991;28;20196;-74
2022/10/09 07:15:50;;;;;;;9.40;7.60;;;10.30;99.90;;;;;;5117286;28;20172;-73
2022/10/09 07:18:15;;;;;;;11.00;7.47;;;10.40;99.90;;;;;;5117201;28;20183;-72
2022/10/09 07:20:41;;;;;;;8.70;7.90;;;10.50;99.90;;;;;;5117464;28;20167;-73
2022/10/09 07:23:06;;;;;;;8.43;7.27;;;10.70;99.90;;;;;;5098983;28;20178;-74
2022/10/09 07:25:37;;;;;;;10.97;8.30;;;10.80;99.90;;;;;;5115002;28;20255;-73
2022/10/09 07:28:03;;;;;;;8.97;8.07;;;10.90;99.90;;;;;;5116702;28;20647;-74
2022/10/09 07:30:28;;;;;;;8.23;7.47;;;10.90;99.90;;;;;;5116762;28;20403;-74
2022/10/09 07:32:54;;;;;;;9.97;8.37;;;11.00;99.90;;;;;;5114875;28;20223;-73
2022/10/09 07:35:19;;;;;;;10.35;7.68;;;11.10;99.90;;;;;;5117255;28;20399;-72
2022/10/09 07:37:45;;;;;;;10.17;8.33;;;11.30;99.90;;;;;;5100076;28;20176;-73
2022/10/09 07:40:10;;;;;;;9.23;8.33;;;11.30;99.90;;;;;;5115618;28;20164;-73
2022/10/09 07:42:36;;;;;;;9.03;8.07;;;11.40;99.90;;;;;;5116670;28;20175;-75
2022/10/09 07:45:02;;;;;;;8.27;7.47;;;11.50;99.90;;;;;;5117735;28;20244;-74
2022/10/09 07:47:27;;;;;;;10.47;8.00;;;11.50;99.90;;;;;;5116310;28;20190;-73
2022/10/09 07:49:53;;;;;;;9.30;7.80;;;11.60;99.90;;;;;;5116220;28;20946;-72
2022/10/09 07:52:18;;;;;;;8.30;6.20;;;11.70;99.90;;;;;;5097502;28;20191;-72
2022/10/09 07:54:44;;;;;;;7.87;7.07;;;11.70;99.90;;;;;;5115676;28;20312;-72
2022/10/09 07:57:09;;;;;;;8.27;7.30;;;11.70;99.90;;;;;;5115823;28;20216;-73
2022/10/09 07:59:35;;;;;;;6.77;6.10;;;11.70;99.90;;;;;;5116151;28;20168;-75
2022/10/09 08:02:01;;;;;;;6.33;5.83;;;11.40;99.90;;;;;;5115483;28;20177;-71
2022/10/09 08:04:26;;;;;;;6.70;5.80;;;11.30;99.90;;;;;;5114386;28;20230;-73
2022/10/09 08:06:52;;;;;;;6.57;5.80;;;11.30;99.90;;;;;;5116766;28;20176;-74
2022/10/09 08:09:17;;;;;;;9.50;6.00;;;11.10;99.90;;;;;;5116494;28;20172;-72
2022/10/09 08:11:43;;;;;;;7.90;6.40;;;11.20;99.90;;;;;;5117408;28;20189;-73
2022/10/09 08:14:11;;;;;;;6.20;5.33;;;11.20;99.90;;;;;;5113847;28;20197;-73
2022/10/09 08:16:36;;;;;;;8.10;6.20;;;11.10;99.90;;;;;;5116039;28;20168;-72
2022/10/09 08:19:02;;;;;;;8.30;6.50;;;11.20;99.90;;;;;;5113767;28;20427;-73
2022/10/09 08:21:28;;;;;;;6.57;5.90;;;11.20;99.90;;;;;;5115495;28;20165;-73
2022/10/09 08:23:56;;;;;;;8.07;5.83;;;11.20;99.90;;;;;;5115387;28;20210;-72
2022/10/09 08:26:23;;;;;;;7.47;6.77;;;11.20;99.90;;;;;;5115606;28;20477;-73
2022/10/09 08:28:54;;;;;;;7.17;5.80;;;11.20;99.90;;;;;;5082776;28;20508;-73
2022/10/09 08:31:21;;;;;;;8.13;7.13;;;11.20;99.90;;;;;;5106946;28;20756;-73
2022/10/09 08:33:46;;;;;;;6.77;6.10;;;11.20;99.90;;;;;;5115032;28;20472;-72
2022/10/09 08:36:14;;;;;;;7.80;6.73;;;11.30;99.90;;;;;;5115438;28;20879;-73
2022/10/09 08:38:40;;;;;;;7.70;6.83;;;11.40;99.90;;;;;;5077831;28;20223;-73
2022/10/09 08:41:18;;;;;;;9.40;7.70;;;11.60;99.90;;;;;;5109998;28;20435;-73
2022/10/09 08:43:46;;;;;;;6.90;6.03;;;11.80;99.90;;;;;;5114542;28;20430;-72
2022/10/09 08:46:34;;;;;;;6.50;5.83;;;12.00;99.90;;;;;;5114698;28;20407;-72
2022/10/09 08:49:03;;;;;;;6.57;5.80;;;12.10;99.90;;;;;;5114413;28;20441;-73
2022/10/09 08:51:34;;;;;;;7.40;6.10;;;12.00;99.90;;;;;;5112423;28;20396;-73
2022/10/09 08:54:25;;;;;;;9.60;6.47;;;12.10;99.90;;;;;;5085895;28;20468;-72
2022/10/09 08:56:52;;;;;;;5.67;5.07;;;12.30;99.90;;;;;;5074172;28;20392;-73
2022/10/09 08:59:18;;;;;;;7.73;5.90;;;12.50;99.90;;;;;;5073828;28;20403;-73
2022/10/09 09:02:05;;;;;;;5.63;4.63;;;12.60;99.90;;;;;;5073750;28;20812;-73
2022/10/09 09:05:02;;;;;;;7.10;5.43;;;12.90;99.90;;;;;;5091167;28;20253;-73
2022/10/09 09:07:41;;;;;;;7.97;5.10;;;13.00;99.90;;;;;;5115476;28;20888;-72
2022/10/09 09:10:19;;;;;;;5.53;5.03;;;13.20;99.90;;;;;;5114484;28;20467;-73
2022/10/09 09:13:18;;;;;;;6.63;4.70;;;13.40;99.90;;;;;;5114154;28;20829;-72
2022/10/09 09:15:53;;;;;;;6.50;4.70;;;13.50;99.90;;;;;;5114363;28;20505;-73
2022/10/09 09:18:45;;;;;;;10.03;5.60;;;13.60;99.90;;;;;;5114805;28;20920;-74
2022/10/09 09:21:14;;;;;;;9.03;4.20;;;13.80;99.90;;;;;;5096029;28;20397;-74
2022/10/09 09:23:43;;;;;;;5.07;4.27;;;14.10;99.90;;;;;;5114470;28;20429;-73
2022/10/09 09:26:14;;;;;;;7.67;4.37;;;14.30;99.90;;;;;;5114374;28;20411;-72
2022/10/09 09:28:40;;;;;;;5.17;3.67;;;14.40;99.90;;;;;;5114276;28;20808;-73
2022/10/09 09:31:17;;;;;;;6.90;4.00;;;14.60;99.90;;;;;;5114355;28;20932;-75
2022/10/09 09:34:06;;;;;;;4.90;2.93;;;14.70;99.90;;;;;;5114049;28;20471;-72
2022/10/09 09:36:39;;;;;;;5.90;3.17;;;14.90;99.90;;;;;;5112589;28;20443;-72
2022/10/09 09:39:05;;;;;;;4.07;3.00;;;14.90;99.90;;;;;;5095648;28;20896;-72
2022/10/09 09:41:30;;;;;;;3.93;2.90;;;15.00;99.90;;;;;;5113838;28;20400;-72
2022/10/09 09:43:56;;;;;;;3.20;2.90;;;15.00;99.90;;;;;;5114069;28;20504;-72
2022/10/09 09:46:27;;;;;;;3.73;2.67;;;14.80;99.90;;;;;;5113896;28;20202;-72
2022/10/09 09:48:53;;;;;;;4.30;2.50;;;15.20;99.90;;;;;;5111801;28;20176;-72
2022/10/09 09:51:23;;;;;;;4.60;2.23;;;15.30;99.90;;;;;;5114128;28;20411;-73
2022/10/09 09:53:55;;;;;;;4.30;2.60;;;15.30;99.90;;;;;;5113656;28;20241;-72
2022/10/09 09:56:32;;;;;;;3.40;2.40;;;15.50;99.90;;;;;;5113484;28;20463;-73
2022/10/09 09:58:58;;;;;;;3.70;2.17;;;15.50;99.90;;;;;;5113751;28;20388;-73
2022/10/09 10:01:25;;;;;;;4.03;2.10;;;15.50;99.90;;;;;;5113542;28;20767;-73
2022/10/09 10:03:53;;;;;;;2.40;2.10;;;15.50;99.90;;;;;;5112930;28;20242;-73
2022/10/09 10:06:34;;;;;;;6.87;2.37;;;15.70;99.90;;;;;;5112013;28;20419;-73
2022/10/09 10:09:11;;;;;;;4.57;2.07;;;15.90;99.90;;;;;;5114341;28;20443;-73
2022/10/09 10:11:48;;;;;;;3.27;2.00;;;16.00;99.90;;;;;;5114135;28;20404;-73
2022/10/09 10:14:15;;;;;;;2.90;2.30;;;16.20;99.90;;;;;;5113817;28;20425;-73
2022/10/09 10:16:42;;;;;;;3.47;1.90;;;16.20;99.90;;;;;;5114014;28;20398;-72
2022/10/09 10:19:22;;;;;;;4.93;2.20;;;16.20;99.90;;;;;;5111834;28;20456;-73
2022/10/09 10:22:03;;;;;;;3.03;1.90;;;16.30;99.90;;;;;;5113243;28;20472;-73
2022/10/09 10:24:40;;;;;;;1.90;1.70;;;16.50;99.90;;;;;;5115216;28;20440;-73
2022/10/09 10:27:37;;;;;;;4.90;2.10;;;16.40;99.90;;;;;;5117865;28;20886;-72
2022/10/09 10:30:11;;;;;;;4.03;2.00;;;16.40;99.90;;;;;;5115859;28;20423;-74
2022/10/09 10:32:49;;;;;;;2.80;1.90;;;16.40;99.90;;;;;;5118048;28;20432;-73
2022/10/09 10:35:22;;;;;;;4.40;2.40;;;16.40;99.90;;;;;;5117244;28;20480;-72
2022/10/09 10:38:15;;;;;;;3.40;2.27;;;16.60;99.90;;;;;;5117581;28;20405;-73
2022/10/09 10:40:44;;;;;;;3.30;2.10;;;16.70;99.90;;;;;;5076219;28;20400;-73
2022/10/09 10:43:09;;;;;;;3.43;1.83;;;16.80;99.90;;;;;;5076849;28;20773;-72
2022/10/09 10:45:43;;;;;;;2.90;2.00;;;16.80;99.90;;;;;;5076555;28;20409;-72
2022/10/09 10:48:35;;;;;;;2.00;1.80;;;16.70;99.90;;;;;;5096378;28;20173;-72
2022/10/09 10:51:11;;;;;;;3.27;1.60;;;17.00;99.90;;;;;;5097223;28;20383;-72
2022/10/09 10:53:59;;;;;;;3.53;2.30;;;17.00;99.90;;;;;;5078328;28;20980;-73
2022/10/09 10:56:33;;;;;;;2.73;1.90;;;17.10;99.70;;;;;;5096197;28;20386;-73
2022/10/09 10:59:06;;;;;;;4.97;2.07;;;16.90;99.50;;;;;;5078495;28;20410;-72
2022/10/09 11:01:45;;;;;;;2.37;1.63;;;17.30;99.90;;;;;;5096424;28;20420;-72
2022/10/09 11:04:35;;;;;;;2.43;1.90;;;18.50;98.20;;;;;;5095736;28;20423;-73
2022/10/09 11:07:28;;;;;;;5.30;1.90;;;20.10;96.10;;;;;;5118026;28;20398;-73
2022/10/09 11:10:14;;;;;;;2.70;1.50;;;21.80;92.50;;;;;;5117021;28;20386;-73
2022/10/09 11:13:01;;;;;;;3.07;1.63;;;21.30;92.10;;;;;;5116749;28;20473;-73
2022/10/09 11:15:47;;;;;;;3.03;1.40;;;21.60;91.80;;;;;;5116957;28;20391;-72
2022/10/09 11:18:18;;;;;;;3.93;1.70;;;23.50;87.90;;;;;;5114666;28;20414;-73
2022/10/09 11:21:04;;;;;;;2.27;1.50;;;23.10;82.00;;;;;;5116565;28;20402;-72
2022/10/09 11:23:51;;;;;;;4.00;1.63;;;22.80;83.00;;;;;;5114745;28;20841;-73
2022/10/09 11:26:29;;;;;;;3.43;1.80;;;23.30;82.00;;;;;;5116664;28;20383;-72
2022/10/09 11:29:23;;;;;;;3.03;2.00;;;24.30;79.90;;;;;;5098167;28;20406;-73
2022/10/09 11:32:12;;;;;;;3.40;1.83;;;23.20;78.70;;;;;;5116415;28;20461;-72
2022/10/09 11:34:45;;;;;;;3.13;1.63;;;22.80;79.70;;;;;;5116915;28;20418;-73
2022/10/09 11:37:20;;;;;;;5.10;1.70;;;21.70;81.60;;;;;;5114538;28;20418;-72
2022/10/09 11:39:46;;;;;;;2.90;1.60;;;21.30;83.20;;;;;;5115346;28;20755;-73
2022/10/09 11:42:15;;;;;;;2.57;1.47;;;21.70;82.70;;;;;;5116224;28;20410;-73
2022/10/09 11:44:54;;;;;;;3.00;2.00;;;21.50;82.10;;;;;;5109142;28;20191;-73
2022/10/09 11:47:32;;;;;;;4.47;2.20;;;22.20;81.00;;;;;;5084558;28;20700;-72
2022/10/09 11:50:38;;;;;;;2.77;1.40;;;22.60;81.30;;;;;;5106094;28;20454;-74
2022/10/09 11:53:14;;;;;;;2.23;1.40;;;24.20;79.10;;;;;;5116026;28;20434;-73
2022/10/09 11:55:41;;;;;;;2.13;1.60;;;25.20;71.90;;;;;;5122647;22;20475;-71
2022/10/09 11:58:21;;;;;;;2.40;1.30;;;24.20;74.00;;;;;;5095581;28;20814;-70
2022/10/09 12:00:50;;;;;;;1.80;1.20;;;24.70;72.70;;;;;;5095908;28;20380;-70
2022/10/09 12:03:41;;;;;;;3.17;1.53;;;23.50;72.60;;;;;;5095428;28;20453;-71
2022/10/09 12:06:12;;;;;;;3.23;1.80;;;23.30;74.40;;;;;;5087519;28;20439;-71
2022/10/09 12:08:53;;;;;;;1.67;1.30;;;22.40;77.60;;;;;;5095234;28;20391;-71
2022/10/09 12:11:20;;;;;;;3.27;1.73;;;22.80;78.50;;;;;;5095274;28;20394;-71
2022/10/09 12:13:50;;;;;;;3.40;1.63;;;23.10;75.90;;;;;;5094619;28;20435;-71
2022/10/09 12:16:38;;;;;;;4.13;1.53;;;23.90;73.40;;;;;;5094887;28;20498;-70
2022/10/09 12:19:10;;;;;;;3.53;1.50;;;23.20;74.40;;;;;;5095010;28;20372;-70
2022/10/09 12:21:49;;;;;;;5.10;1.60;;;22.90;76.00;;;;;;5094431;28;20457;-71
2022/10/09 12:24:20;;;;;;;4.03;1.90;;;23.30;74.40;;;;;;5094916;28;20411;-71
2022/10/09 12:26:47;;;;;;;2.63;1.80;;;23.20;75.80;;;;;;5094816;28;20467;-72
2022/10/09 12:29:30;;;;;;;3.23;1.53;;;23.50;75.10;;;;;;5076728;28;20419;-71
2022/10/09 12:32:01;;;;;;;2.90;1.67;;;23.50;74.20;;;;;;5094967;28;20445;-71
2022/10/09 12:34:33;;;;;;;2.77;1.80;;;24.50;72.60;;;;;;5094596;28;20427;-72
2022/10/09 12:37:13;;;;;;;3.73;1.67;;;24.70;72.20;;;;;;5094425;28;20474;-72
2022/10/09 12:39:39;;;;;;;1.60;1.30;;;24.20;71.60;;;;;;5095151;28;20395;-71
2022/10/09 12:42:13;;;;;;;1.57;1.47;;;24.20;72.80;;;;;;5094426;28;20426;-71
2022/10/09 12:44:39;;;;;;;5.00;1.67;;;23.70;71.50;;;;;;5094434;28;20808;-71
2022/10/09 12:47:12;;;;;;;1.60;1.20;;;23.20;73.00;;;;;;5094813;28;20403;-71
2022/10/09 12:49:38;;;;;;;2.47;1.57;;;23.80;72.40;;;;;;5094751;28;20154;-71
2022/10/09 12:52:15;;;;;;;1.50;1.30;;;24.30;72.10;;;;;;5094004;28;20446;-71
2022/10/09 12:54:43;;;;;;;2.00;1.70;;;25.10;69.10;;;;;;5083944;28;20219;-71
2022/10/09 12:57:13;;;;;;;5.10;2.00;;;24.60;69.10;;;;;;5073402;28;20412;-72
2022/10/09 12:59:39;;;;;;;3.80;1.27;;;25.50;70.10;;;;;;5094288;28;20460;-72
2022/10/09 13:02:10;;;;;;;8.57;7.80;;;26.50;67.40;;;;;;5094030;28;20399;-71
2022/10/09 13:04:36;;;;;;;1.97;1.60;;;25.30;66.00;;;;;;5093671;28;20472;-71